Time;durP1;ratioP1;P1;durP2;ratioP2;P2;SDS_P1;SDS_P2;PMS_P1;PMS_P2;Temp;Humidity;BMP_temperature;BMP_pressure;BME280_temperature;BME280_humidity;BME280_pressure;Samples;Min_cycle;Max_cycle;Signal;HPM_P1;HPM_P2
2022/01/17 00:00:17;;;;;;;28.58;13.93;;;;;;;-0.57;100.00;96226.81;4994390;28;20038;-68
2022/01/17 00:02:42;;;;;;;25.25;12.98;;;;;;;-0.57;100.00;96242.59;4994012;28;20025;-68
2022/01/17 00:05:09;;;;;;;28.45;14.45;;;;;;;-0.57;100.00;96245.22;4994148;28;20030;-68
2022/01/17 00:07:35;;;;;;;26.67;14.68;;;;;;;-0.57;100.00;96232.91;4999874;28;20392;-68
2022/01/17 00:10:01;;;;;;;27.48;13.82;;;;;;;-0.56;100.00;96244.25;5013366;28;20483;-68
2022/01/17 00:12:29;;;;;;;28.38;14.15;;;;;;;-0.57;100.00;96246.06;4992539;28;20121;-68
2022/01/17 00:14:57;;;;;;;30.02;13.98;;;;;;;-0.57;100.00;96253.94;4993982;28;20066;-68
2022/01/17 00:17:30;;;;;;;24.08;13.35;;;;;;;-0.55;100.00;96259.03;4992834;28;20525;-68
2022/01/17 00:19:56;;;;;;;24.35;12.93;;;;;;;-0.54;100.00;96261.53;4994316;28;20338;-68
2022/01/17 00:22:23;;;;;;;28.77;13.65;;;;;;;-0.54;100.00;96271.22;4993796;28;20026;-68
2022/01/17 00:24:50;;;;;;;28.40;14.73;;;;;;;-0.52;100.00;96256.09;5003352;28;20037;-68
2022/01/17 00:27:16;;;;;;;32.45;14.73;;;;;;;-0.52;100.00;96254.28;4993571;28;20080;-68
2022/01/17 00:29:46;;;;;;;30.55;14.75;;;;;;;-0.52;100.00;96254.28;4993377;28;20116;-68
2022/01/17 00:32:12;;;;;;;30.08;14.30;;;;;;;-0.51;100.00;96266.44;4997264;28;20030;-68
2022/01/17 00:34:38;;;;;;;28.90;14.60;;;;;;;-0.51;100.00;96258.56;4992240;28;20030;-68
2022/01/17 00:37:05;;;;;;;30.52;14.77;;;;;;;-0.51;100.00;96263.81;4993289;28;20507;-68
2022/01/17 00:39:31;;;;;;;30.75;15.10;;;;;;;-0.49;100.00;96263.66;4992299;28;20519;-68
2022/01/17 00:41:56;;;;;;;30.90;15.27;;;;;;;-0.49;100.00;96263.66;4993305;28;20133;-68
2022/01/17 00:44:23;;;;;;;31.83;16.60;;;;;;;-0.49;100.00;96269.72;4991840;28;20062;-68
2022/01/17 00:46:51;;;;;;;29.50;14.25;;;;;;;-0.47;100.00;96272.19;4993446;28;20109;-68
2022/01/17 00:49:21;;;;;;;29.88;15.10;;;;;;;-0.44;100.00;96271.84;5005302;28;20339;-68
2022/01/17 00:51:49;;;;;;;32.00;15.68;;;;;;;-0.43;100.00;96270.88;5002780;28;20057;-68
2022/01/17 00:54:15;;;;;;;26.15;14.15;;;;;;;-0.44;100.00;96272.66;4995660;28;20030;-68
2022/01/17 00:56:40;;;;;;;29.73;15.30;;;;;;;-0.43;100.00;96276.16;5011731;28;20076;-68
2022/01/17 00:59:06;;;;;;;29.73;15.43;;;;;;;-0.42;100.00;96272.53;5012537;28;20034;-68
2022/01/17 01:01:36;;;;;;;29.48;14.57;;;;;;;-0.43;100.00;96282.22;5012618;28;20032;-68
2022/01/17 01:04:06;;;;;;;29.63;14.98;;;;;;;-0.42;100.00;96289.13;5012530;28;20432;-68
2022/01/17 01:06:36;;;;;;;27.02;14.55;;;;;;;-0.41;100.00;96289.97;5011618;28;20389;-68
2022/01/17 01:09:05;;;;;;;29.08;14.75;;;;;;;-0.43;100.00;96289.31;5012784;28;20030;-68
2022/01/17 01:11:30;;;;;;;32.08;15.55;;;;;;;-0.46;100.00;96287.00;5012328;28;20452;-68
2022/01/17 01:13:56;;;;;;;32.92;16.08;;;;;;;-0.50;100.00;96286.50;5012386;28;20046;-68
2022/01/17 01:16:30;;;;;;;27.45;13.65;;;;;;;-0.51;100.00;96297.22;5012292;28;20141;-68
2022/01/17 01:19:09;;;;;;;27.00;14.30;;;;;;;-0.54;100.00;96301.00;5012304;28;20026;-68
2022/01/17 01:21:48;;;;;;;28.63;15.43;;;;;;;-0.56;100.00;96297.69;5012265;28;20089;-68
2022/01/17 01:29:48;;;;;;;30.30;14.90;;;;;;;-0.59;100.00;96312.00;5012160;28;20036;-68
2022/01/17 01:32:25;;;;;;;33.00;16.08;;;;;;;-0.59;100.00;96313.81;5012024;28;20018;-68
2022/01/17 01:34:56;;;;;;;28.42;14.77;;;;;;;-0.60;100.00;96315.63;4995027;28;20034;-68
2022/01/17 01:37:23;;;;;;;29.70;14.63;;;;;;;-0.61;100.00;96318.44;5002362;28;20469;-68
2022/01/17 01:39:51;;;;;;;29.02;15.30;;;;;;;-0.62;100.00;96322.88;5011953;28;20029;-68
2022/01/17 01:42:18;;;;;;;31.75;14.85;;;;;;;-0.62;100.00;96327.31;5011950;28;20030;-68
2022/01/17 01:44:47;;;;;;;29.92;16.08;;;;;;;-0.63;100.00;96329.13;5011742;28;20037;-68
2022/01/17 01:47:13;;;;;;;32.05;15.85;;;;;;;-0.63;100.00;96328.31;4983229;28;20030;-68
2022/01/17 01:49:41;;;;;;;32.17;15.90;;;;;;;-0.63;100.00;96329.13;5007030;28;20528;-68
2022/01/17 01:52:06;;;;;;;26.55;15.13;;;;;;;-0.62;100.00;96330.75;4991934;28;20030;-68
2022/01/17 01:54:32;;;;;;;29.55;15.80;;;;;;;-0.59;100.00;96330.44;5010413;28;20030;-68
2022/01/17 01:56:57;;;;;;;28.90;14.98;;;;;;;-0.59;100.00;96324.34;5010134;28;20036;-68
2022/01/17 01:59:25;;;;;;;27.58;14.35;;;;;;;-0.57;100.00;96332.88;5010059;28;20026;-68
2022/01/17 02:01:51;;;;;;;28.67;15.10;;;;;;;-0.55;100.00;96333.53;5010314;28;20034;-68
2022/01/17 02:04:17;;;;;;;26.13;14.80;;;;;;;-0.54;100.00;96332.59;5011405;28;20543;-68
2022/01/17 02:06:42;;;;;;;26.52;14.43;;;;;;;-0.55;100.00;96332.72;5011311;28;20025;-68
2022/01/17 02:09:10;;;;;;;25.67;14.48;;;;;;;-0.55;100.00;96337.97;5011213;28;20030;-68
2022/01/17 02:11:36;;;;;;;27.85;15.45;;;;;;;-0.55;100.00;96327.47;4997965;28;20064;-68
2022/01/17 02:14:05;;;;;;;24.98;13.20;;;;;;;-0.56;100.00;96328.44;4991573;28;20394;-68
2022/01/17 02:16:33;;;;;;;27.05;14.57;;;;;;;-0.56;100.00;96328.44;4991872;28;20050;-68
2022/01/17 02:19:01;;;;;;;28.45;13.98;;;;;;;-0.59;100.00;96335.69;5006044;28;20382;-68
2022/01/17 02:21:45;;;;;;;27.30;14.65;;;;;;;-0.60;100.00;96328.78;4991515;28;20512;-68
2022/01/17 02:24:14;;;;;;;28.15;15.32;;;;;;;-0.60;100.00;96335.84;4991426;28;20389;-68
2022/01/17 02:26:40;;;;;;;27.20;13.90;;;;;;;-0.58;100.00;96336.50;4991396;28;20018;-68
2022/01/17 02:29:06;;;;;;;26.38;14.38;;;;;;;-0.58;100.00;96336.50;4991458;28;20503;-68
2022/01/17 02:31:32;;;;;;;27.35;14.70;;;;;;;-0.57;100.00;96335.53;4991117;28;20460;-68
2022/01/17 02:33:57;;;;;;;27.23;14.18;;;;;;;-0.57;100.00;96345.22;4991366;28;20026;-68
2022/01/17 02:36:23;;;;;;;28.65;14.57;;;;;;;-0.59;100.00;96338.31;4989957;28;20218;-68
2022/01/17 02:38:49;;;;;;;25.88;14.48;;;;;;;-0.60;100.00;96338.50;4991127;28;20434;-68
2022/01/17 02:41:14;;;;;;;25.55;14.70;;;;;;;-0.60;100.00;96333.22;4989712;28;20141;-68
2022/01/17 02:43:40;;;;;;;31.13;15.43;;;;;;;-0.63;100.00;96339.66;4989940;28;20030;-68
2022/01/17 02:48:36;;;;;;;29.58;14.88;;;;;;;-0.62;100.00;96345.72;4991098;28;20049;-68
2022/01/17 02:51:03;;;;;;;26.77;14.13;;;;;;;-0.63;100.00;96362.50;4991466;28;20018;-68
2022/01/17 02:53:29;;;;;;;26.30;14.32;;;;;;;-0.63;100.00;96357.25;4991010;28;20031;-68
2022/01/17 02:55:59;;;;;;;29.75;14.95;;;;;;;-0.64;100.00;96356.44;4989817;28;20068;-68
2022/01/17 02:58:27;;;;;;;28.95;14.13;;;;;;;-0.63;100.00;96354.63;4991038;28;20315;-68
2022/01/17 03:00:56;;;;;;;29.38;13.98;;;;;;;-0.64;100.00;96351.16;5002036;28;20516;-68
2022/01/17 03:03:24;;;;;;;28.77;14.93;;;;;;;-0.63;100.00;96357.25;4990889;28;20076;-68
2022/01/17 03:05:55;;;;;;;25.65;13.45;;;;;;;-0.63;100.00;96352.81;4989448;28;20561;-68
2022/01/17 03:08:24;;;;;;;27.77;14.20;;;;;;;-0.60;100.00;96347.22;5003014;28;20036;-68
2022/01/17 03:10:51;;;;;;;25.33;13.32;;;;;;;-0.57;100.00;96330.25;5008959;28;20060;-68
2022/01/17 03:13:24;;;;;;;23.05;12.40;;;;;;;-0.53;100.00;96328.13;5010220;28;20551;-68
2022/01/17 03:15:57;;;;;;;24.83;13.05;;;;;;;-0.53;100.00;96328.13;5010545;28;20041;-68
2022/01/17 03:18:25;;;;;;;24.27;12.85;;;;;;;-0.51;100.00;96320.91;5010502;28;20428;-68
2022/01/17 03:20:50;;;;;;;24.20;13.20;;;;;;;-0.49;100.00;96325.00;5009842;28;20021;-68
2022/01/17 03:23:18;;;;;;;27.65;13.57;;;;;;;-0.47;100.00;96335.34;4994684;28;20441;-68
2022/01/17 03:25:44;;;;;;;25.33;13.02;;;;;;;-0.47;100.00;96341.44;4990597;28;20381;-68
2022/01/17 03:28:09;;;;;;;26.08;13.77;;;;;;;-0.48;100.00;96337.16;4984848;28;20121;-68
2022/01/17 03:30:35;;;;;;;24.42;12.73;;;;;;;-0.48;100.00;96336.34;4990620;28;20026;-68
2022/01/17 03:33:06;;;;;;;24.38;12.68;;;;;;;-0.51;100.00;96326.97;4990872;28;20044;-68
2022/01/17 03:35:32;;;;;;;26.08;13.18;;;;;;;-0.51;100.00;96326.16;4994758;28;20044;-68
2022/01/17 03:38:00;;;;;;;30.50;14.73;;;;;;;-0.50;100.00;96327.81;4992471;28;20456;-68
2022/01/17 03:40:26;;;;;;;21.50;12.40;;;;;;;-0.50;100.00;96330.44;5017829;23;20064;-83
2022/01/17 03:42:51;;;;;;;22.90;13.35;;;;;;;-0.50;100.00;96328.63;5003821;22;20038;-61
2022/01/17 03:45:17;;;;;;;26.80;13.68;;;;;;;-0.51;100.00;96334.06;4996953;28;20113;-62
2022/01/17 03:47:49;;;;;;;24.48;12.70;;;;;;;-0.54;100.00;96332.59;4994671;28;20488;-61
2022/01/17 03:50:17;;;;;;;24.57;12.77;;;;;;;-0.56;100.00;96339.78;4998766;28;20080;-64
2022/01/17 03:52:43;;;;;;;23.38;13.55;;;;;;;-0.59;100.00;96340.94;4991449;28;20069;-61
2022/01/17 03:55:14;;;;;;;23.02;11.98;;;;;;;-0.60;100.00;96354.28;4989056;28;20065;-64
2022/01/17 03:57:43;;;;;;;23.15;12.20;;;;;;;-0.61;100.00;96361.34;4990398;28;20026;-65
2022/01/17 04:00:12;;;;;;;24.83;13.43;;;;;;;-0.62;100.00;96367.59;4990252;28;20030;-64
2022/01/17 04:02:37;;;;;;;27.27;13.15;;;;;;;-0.61;100.00;96374.50;4990194;28;20037;-64
2022/01/17 04:05:03;;;;;;;23.30;12.25;;;;;;;-0.60;100.00;96381.41;4989238;28;20030;-65
2022/01/17 04:07:28;;;;;;;24.60;13.00;;;;;;;-0.59;100.00;96382.25;4990196;28;20030;-64
2022/01/17 04:09:53;;;;;;;22.65;12.63;;;;;;;-0.59;100.00;96396.22;4990233;28;20109;-64
2022/01/17 04:12:19;;;;;;;20.42;12.30;;;;;;;-0.57;100.00;96397.84;4989218;28;20481;-62
2022/01/17 04:14:46;;;;;;;22.45;11.90;;;;;;;-0.57;100.00;96398.69;4990598;28;20037;-60
2022/01/17 04:17:12;;;;;;;22.42;12.23;;;;;;;-0.58;100.00;96386.50;4990394;28;20028;-62
2022/01/17 04:19:37;;;;;;;23.33;12.40;;;;;;;-0.59;100.00;96390.94;4988890;28;20038;-61
2022/01/17 04:22:03;;;;;;;19.45;12.07;;;;;;;-0.60;100.00;96386.69;4990233;28;20362;-63
2022/01/17 04:24:28;;;;;;;20.98;12.48;;;;;;;-0.60;100.00;96375.34;4990190;28;20395;-63
2022/01/17 04:26:54;;;;;;;23.33;12.80;;;;;;;-0.64;100.00;96364.31;4990118;28;20018;-62
2022/01/17 04:29:20;;;;;;;21.25;11.82;;;;;;;-0.67;100.00;96361.16;4990097;28;20532;-63
2022/01/17 04:31:46;;;;;;;23.75;12.63;;;;;;;-0.69;100.00;96357.88;4991408;28;20400;-64
2022/01/17 04:34:11;;;;;;;22.88;11.57;;;;;;;-0.71;100.00;96346.72;4993593;28;20557;-62
2022/01/17 04:36:37;;;;;;;22.25;12.30;;;;;;;-0.79;100.00;96338.81;4993132;28;20109;-64
2022/01/17 04:39:03;;;;;;;19.80;12.30;;;;;;;-0.88;100.00;96345.88;4992243;28;20022;-62
2022/01/17 04:41:37;;;;;;;19.38;10.88;;;;;;;-0.96;100.00;96348.50;4993120;28;20058;-65
2022/01/17 04:45:07;;;;;;;21.00;12.00;;;;;;;-1.08;100.00;96350.63;4992240;28;20030;-62
2022/01/17 04:46:49;;;;;;;21.58;11.50;;;;;;;-1.15;100.00;96340.91;4993291;28;20026;-62
2022/01/17 04:49:19;;;;;;;22.70;12.70;;;;;;;-1.21;100.00;96343.19;4993122;28;20386;-64
2022/01/17 04:51:45;;;;;;;24.58;12.43;;;;;;;-1.26;100.00;96356.00;4991805;28;20046;-65
2022/01/17 04:55:01;;;;;;;21.52;11.32;;;;;;;-1.32;100.00;96347.91;4991922;28;20062;-66
2022/01/17 04:56:57;;;;;;;23.33;11.75;;;;;;;-1.39;100.00;96358.25;4992502;28;20041;-65
2022/01/17 04:59:22;;;;;;;22.75;12.52;;;;;;;-1.45;100.00;96364.13;4993157;28;20406;-64
2022/01/17 05:01:48;;;;;;;22.35;11.85;;;;;;;-1.50;100.00;96359.38;4992939;28;20037;-64
2022/01/17 05:04:13;;;;;;;22.52;11.95;;;;;;;-1.51;100.00;96354.28;4993133;28;20027;-62
2022/01/17 05:06:39;;;;;;;20.92;11.70;;;;;;;-1.55;100.00;96361.63;4992970;28;20117;-64
2022/01/17 05:09:04;;;;;;;21.00;11.20;;;;;;;-1.58;100.00;96371.66;4992896;28;20032;-63
2022/01/17 05:11:31;;;;;;;20.00;10.73;;;;;;;-1.64;100.00;96382.78;4993000;28;20050;-64
2022/01/17 05:13:57;;;;;;;16.70;10.27;;;;;;;-1.67;100.00;96386.53;4992869;28;20030;-63
2022/01/17 05:16:32;;;;;;;21.30;11.00;;;;;;;-1.72;100.00;96390.63;4991460;28;20034;-62
2022/01/17 05:21:41;;;;;;;18.48;9.57;;;;;;;-1.80;100.00;96405.38;4992971;28;20100;-63
2022/01/17 05:24:06;;;;;;;14.50;8.90;;;;;;;-1.83;100.00;96405.69;4992739;28;20031;-66
2022/01/17 05:26:32;;;;;;;14.73;8.80;;;;;;;-1.81;100.00;96416.84;4992575;28;20022;-64
2022/01/17 05:28:57;;;;;;;14.40;9.10;;;;;;;-1.77;100.00;96428.69;4992645;28;20397;-64
2022/01/17 05:31:22;;;;;;;13.15;8.27;;;;;;;-1.74;100.00;96440.66;4992527;28;20069;-63
2022/01/17 05:33:50;;;;;;;14.82;8.57;;;;;;;-1.72;100.00;96440.53;4991368;28;20117;-61
2022/01/17 05:36:16;;;;;;;18.10;9.15;;;;;;;-1.69;100.00;96442.84;4991267;28;20544;-61
2022/01/17 05:38:41;;;;;;;18.23;9.18;;;;;;;-1.69;100.00;96441.03;4991103;28;20026;-60
2022/01/17 05:41:07;;;;;;;17.27;9.48;;;;;;;-1.69;100.00;96443.69;4990679;28;20042;-62
2022/01/17 05:43:32;;;;;;;17.55;8.70;;;;;;;-1.69;100.00;96445.47;4990649;28;20062;-63
2022/01/17 05:45:57;;;;;;;15.95;8.43;;;;;;;-1.71;100.00;96450.91;4992320;28;20218;-61
2022/01/17 05:48:23;;;;;;;16.67;8.55;;;;;;;-1.73;100.00;96452.84;4992276;28;20034;-62
2022/01/17 05:50:48;;;;;;;16.70;8.32;;;;;;;-1.72;100.00;96461.56;4990705;28;20428;-64
2022/01/17 05:53:14;;;;;;;15.48;8.25;;;;;;;-1.71;100.00;96457.94;4992425;28;20109;-65
2022/01/17 05:55:40;;;;;;;16.52;8.52;;;;;;;-1.71;100.00;96461.41;4991986;28;20117;-65
2022/01/17 05:58:05;;;;;;;16.17;8.45;;;;;;;-1.70;100.00;96451.72;4992151;28;20028;-64
2022/01/17 06:00:32;;;;;;;15.95;8.80;;;;;;;-1.68;100.00;96447.13;4991989;28;20030;-65
2022/01/17 06:02:57;;;;;;;14.40;8.02;;;;;;;-1.70;100.00;96444.66;4990721;28;20437;-65
2022/01/17 06:05:22;;;;;;;15.68;7.78;;;;;;;-1.71;100.00;96450.06;4990504;28;20030;-64
2022/01/17 06:07:48;;;;;;;16.38;8.95;;;;;;;-1.72;100.00;96458.94;4991937;28;20026;-63
2022/01/17 06:10:13;;;;;;;16.80;8.75;;;;;;;-1.72;100.00;96464.19;4990458;28;20464;-65
2022/01/17 06:12:38;;;;;;;14.73;8.13;;;;;;;-1.74;100.00;96461.69;4991595;28;20031;-64
2022/01/17 06:15:04;;;;;;;16.40;8.00;;;;;;;-1.72;100.00;96461.56;4991616;28;20096;-65
2022/01/17 06:17:30;;;;;;;13.48;7.57;;;;;;;-1.73;100.00;96459.91;4991618;28;20031;-65
2022/01/17 06:19:55;;;;;;;12.45;7.15;;;;;;;-1.73;100.00;96452.84;4991562;28;20396;-65
2022/01/17 06:22:21;;;;;;;17.08;8.75;;;;;;;-1.71;100.00;96457.94;4990203;28;20026;-64
2022/01/17 06:24:46;;;;;;;18.50;8.88;;;;;;;-1.69;100.00;96450.72;4991540;28;20050;-65
2022/01/17 06:27:11;;;;;;;16.85;9.07;;;;;;;-1.68;100.00;96434.81;4990021;28;20054;-65
2022/01/17 06:29:39;;;;;;;18.33;9.23;;;;;;;-1.59;100.00;96427.81;4990189;28;20034;-64
2022/01/17 06:32:05;;;;;;;20.92;10.43;;;;;;;-1.53;100.00;96421.91;4991229;28;20018;-66
2022/01/17 06:34:30;;;;;;;17.08;9.63;;;;;;;-1.46;100.00;96422.94;4990208;28;20377;-65
2022/01/17 06:36:56;;;;;;;20.02;10.30;;;;;;;-1.42;100.00;96420.81;4990038;28;20030;-65
2022/01/17 06:39:21;;;;;;;17.90;9.50;;;;;;;-1.41;100.00;96418.03;4973641;28;20121;-65
2022/01/17 06:41:47;;;;;;;17.33;9.43;;;;;;;-1.41;100.00;96422.44;4990993;28;20107;-65
2022/01/17 06:44:12;;;;;;;21.27;9.85;;;;;;;-1.40;100.00;96421.50;4991169;28;20034;-64
2022/01/17 06:46:38;;;;;;;19.92;9.50;;;;;;;-1.41;100.00;96419.81;4991222;28;20037;-65
2022/01/17 06:49:06;;;;;;;18.30;8.82;;;;;;;-1.46;100.00;96436.91;4973889;28;20124;-65
2022/01/17 06:51:33;;;;;;;19.33;9.88;;;;;;;-1.50;100.00;96432.13;4991322;28;20026;-65
2022/01/17 06:53:58;;;;;;;17.85;9.30;;;;;;;-1.54;100.00;96443.91;4990213;28;20297;-65
2022/01/17 06:56:24;;;;;;;19.13;9.68;;;;;;;-1.55;100.00;96453.59;4990831;28;20378;-65
2022/01/17 06:58:50;;;;;;;15.13;8.20;;;;;;;-1.57;100.00;96447.69;4991283;28;20023;-64
2022/01/17 07:01:17;;;;;;;18.08;9.07;;;;;;;-1.60;100.00;96441.91;4990694;28;20081;-65
2022/01/17 07:03:42;;;;;;;17.38;9.05;;;;;;;-1.66;100.00;96447.78;4960963;28;20386;-64
2022/01/17 07:06:08;;;;;;;18.42;8.30;;;;;;;-1.74;100.00;96435.41;4991009;28;20041;-64
2022/01/17 07:08:33;;;;;;;14.15;8.23;;;;;;;-1.76;100.00;96443.47;4990913;28;20392;-65
2022/01/17 07:10:59;;;;;;;15.45;8.27;;;;;;;-1.82;100.00;96441.47;4990798;28;20037;-63
2022/01/17 07:13:26;;;;;;;18.85;9.05;;;;;;;-1.87;100.00;96443.72;4990725;28;20089;-65
2022/01/17 07:15:52;;;;;;;14.52;8.82;;;;;;;-1.91;100.00;96447.66;4991062;28;20137;-66
2022/01/17 07:18:17;;;;;;;15.90;8.82;;;;;;;-1.88;100.00;96470.13;4989530;28;20548;-66
2022/01/17 07:20:43;;;;;;;16.75;9.48;;;;;;;-1.86;100.00;96473.44;4990623;28;20022;-66
2022/01/17 07:23:09;;;;;;;18.38;9.25;;;;;;;-1.87;100.00;96487.53;4989564;28;20030;-66
2022/01/17 07:25:38;;;;;;;15.15;8.82;;;;;;;-1.85;100.00;96503.97;4990980;28;20041;-66
2022/01/17 07:28:07;;;;;;;16.80;9.57;;;;;;;-1.85;100.00;96514.47;4974006;28;20014;-66
2022/01/17 07:30:35;;;;;;;18.40;8.85;;;;;;;-1.85;100.00;96520.53;4989254;28;20027;-66
2022/01/17 07:33:03;;;;;;;18.92;9.35;;;;;;;-1.83;100.00;96533.53;4989370;28;20493;-66
2022/01/17 07:35:28;;;;;;;17.48;9.45;;;;;;;-1.83;100.00;96571.13;4990634;28;20026;-66
2022/01/17 07:37:53;;;;;;;15.07;8.85;;;;;;;-1.84;100.00;96564.25;4990286;28;20033;-66
2022/01/17 07:40:19;;;;;;;15.90;8.43;;;;;;;-1.83;100.00;96544.88;4990594;28;20124;-66
2022/01/17 07:42:44;;;;;;;15.23;8.98;;;;;;;-1.87;100.00;96530.38;4990301;28;20046;-66
2022/01/17 07:45:13;;;;;;;16.17;8.90;;;;;;;-1.93;100.00;96520.50;4990545;28;20080;-66
2022/01/17 07:47:44;;;;;;;20.02;9.13;;;;;;;-2.00;100.00;96522.06;4990502;28;20030;-66
2022/01/17 07:50:18;;;;;;;20.25;9.13;;;;;;;-2.00;100.00;96521.25;4965968;28;20039;-66
2022/01/17 07:52:44;;;;;;;14.35;8.43;;;;;;;-1.99;100.00;96517.66;4990587;28;20489;-66
2022/01/17 07:55:11;;;;;;;15.02;8.32;;;;;;;-2.03;100.00;96514.50;4989275;28;20037;-66
2022/01/17 07:57:38;;;;;;;15.27;8.50;;;;;;;-2.07;100.00;96536.78;4989060;28;20393;-65
2022/01/17 08:00:08;;;;;;;13.55;8.23;;;;;;;-2.05;100.00;96540.09;4989144;28;20026;-62
2022/01/17 08:02:33;;;;;;;16.23;8.88;;;;;;;-2.02;100.00;96529.28;4988909;28;20022;-63
2022/01/17 08:04:59;;;;;;;18.02;9.25;;;;;;;-2.07;100.00;96518.41;4988953;28;20026;-66
2022/01/17 08:07:25;;;;;;;22.63;10.45;;;;;;;-2.11;100.00;96523.13;4976608;28;20018;-66
2022/01/17 08:09:50;;;;;;;16.10;8.45;;;;;;;-2.12;100.00;96531.97;4993957;28;20026;-66
2022/01/17 08:12:15;;;;;;;15.88;8.63;;;;;;;-2.13;100.00;96519.84;4993906;28;20030;-66
2022/01/17 08:14:41;;;;;;;16.05;8.35;;;;;;;-2.13;100.00;96519.84;4993883;28;20022;-66
2022/01/17 08:17:07;;;;;;;17.40;9.23;;;;;;;-2.08;100.00;96517.56;4992793;28;20026;-66
2022/01/17 08:19:33;;;;;;;13.93;8.05;;;;;;;-2.02;100.00;96518.78;4993954;28;20031;-66
2022/01/17 08:22:03;;;;;;;16.73;9.05;;;;;;;-1.97;100.00;96513.06;4994654;28;20034;-66
2022/01/17 08:24:29;;;;;;;16.40;8.68;;;;;;;-1.89;100.00;96521.84;4993695;28;20069;-66
2022/01/17 08:26:54;;;;;;;15.48;8.20;;;;;;;-1.81;100.00;96524.53;4994557;28;20070;-66
2022/01/17 08:29:22;;;;;;;18.73;9.73;;;;;;;-1.75;100.00;96523.91;4994621;28;20032;-66
2022/01/17 08:31:47;;;;;;;17.60;9.02;;;;;;;-1.64;100.00;96519.38;4994540;28;20026;-66
2022/01/17 08:34:15;;;;;;;18.70;9.55;;;;;;;-1.46;100.00;96526.25;4994476;28;20033;-66
2022/01/17 08:36:40;;;;;;;18.02;9.77;;;;;;;-1.27;100.00;96524.38;4992953;28;20030;-66
2022/01/17 08:39:07;;;;;;;16.70;9.52;;;;;;;-1.09;100.00;96526.94;4992137;28;20413;-66
2022/01/17 08:41:34;;;;;;;19.77;9.90;;;;;;;-0.93;100.00;96517.31;4992313;28;20093;-66
2022/01/17 08:43:59;;;;;;;18.65;10.30;;;;;;;-0.78;100.00;96514.91;4993447;28;20432;-66
2022/01/17 08:46:24;;;;;;;19.60;11.35;;;;;;;-0.63;100.00;96521.22;4993461;28;20072;-66
2022/01/17 08:48:52;;;;;;;19.90;11.23;;;;;;;-0.47;100.00;96509.06;4992036;28;20069;-63
2022/01/17 08:51:17;;;;;;;21.15;10.55;;;;;;;-0.33;100.00;96498.75;4991786;28;20023;-66
2022/01/17 08:53:42;;;;;;;19.65;10.23;;;;;;;-0.15;100.00;96492.50;4993594;28;20030;-66
2022/01/17 08:56:09;;;;;;;19.80;11.68;;;;;;;0.01;100.00;96478.53;4993118;28;20042;-66
2022/01/17 08:58:34;;;;;;;20.60;11.27;;;;;;;0.10;100.00;96480.97;4993275;28;20512;-67
2022/01/17 09:01:00;;;;;;;18.42;10.88;;;;;;;0.19;100.00;96487.06;4993066;28;20031;-66
2022/01/17 09:03:25;;;;;;;20.42;10.52;;;;;;;0.28;100.00;96496.59;4991913;28;20030;-66
2022/01/17 09:05:52;;;;;;;17.38;10.38;;;;;;;0.31;100.00;96511.25;4993087;28;20037;-67
2022/01/17 09:08:20;;;;;;;18.23;10.32;;;;;;;0.33;100.00;96525.13;4993049;28;20509;-66
2022/01/17 09:10:46;;;;;;;15.98;9.88;;;;;;;0.36;100.00;96524.78;4992866;28;20034;-67
2022/01/17 09:13:12;;;;;;;14.90;8.88;;;;;;;0.36;100.00;96520.34;4993013;28;20030;-66
2022/01/17 09:15:38;;;;;;;16.80;10.15;;;;;;;0.40;100.00;96521.63;4992662;28;20030;-66
2022/01/17 09:18:05;;;;;;;20.13;9.98;;;;;;;0.48;100.00;96515.53;4990785;28;20410;-66
2022/01/17 09:20:34;;;;;;;21.50;10.35;;;;;;;0.88;100.00;96498.00;4992768;28;20463;-66
2022/01/17 09:23:01;;;;;;;18.73;9.85;;;;;;;1.40;100.00;96459.47;4992766;28;20026;-66
2022/01/17 09:25:26;;;;;;;18.15;10.77;;;;;;;1.95;100.00;96445.25;4992928;28;20034;-66
2022/01/17 09:27:54;;;;;;;20.00;10.23;;;;;;;2.58;100.00;96437.84;4992732;28;20249;-64
2022/01/17 09:30:22;;;;;;;19.00;10.98;;;;;;;3.11;100.00;96439.38;4992445;28;20058;-61
2022/01/17 09:32:48;;;;;;;17.33;10.27;;;;;;;3.57;100.00;96447.03;4992539;28;20033;-62
2022/01/17 09:35:14;;;;;;;18.25;10.07;;;;;;;3.94;100.00;96458.44;4992604;28;20119;-62
2022/01/17 09:37:40;;;;;;;15.38;8.90;;;;;;;4.21;100.00;96472.75;4992466;28;20137;-65
2022/01/17 09:40:06;;;;;;;16.00;9.00;;;;;;;4.50;100.00;96471.75;4974861;28;20056;-63
2022/01/17 09:42:36;;;;;;;12.80;8.07;;;;;;;4.59;100.00;96465.31;5004816;23;20137;-68
2022/01/17 09:45:08;;;;;;;16.67;8.45;;;;;;;4.85;100.00;96462.00;4990104;28;20029;-68
2022/01/17 09:47:34;;;;;;;12.68;8.02;;;;;;;4.81;100.00;96479.34;4992205;28;20101;-68
2022/01/17 09:50:02;;;;;;;12.15;7.15;;;;;;;5.27;100.00;96470.78;4992574;28;20065;-69
2022/01/17 09:52:34;;;;;;;13.63;6.93;;;;;;;5.63;100.00;96467.84;4989657;28;20397;-69
2022/01/17 09:55:11;;;;;;;14.10;7.97;;;;;;;5.58;100.00;96433.09;4972815;28;20030;-69
2022/01/17 09:57:49;;;;;;;13.85;8.75;;;;;;;5.19;100.00;96406.19;4971135;28;20122;-69
2022/01/17 10:00:17;;;;;;;15.20;9.20;;;;;;;5.27;100.00;96407.03;4972727;28;20053;-69
2022/01/17 10:02:49;;;;;;;13.68;8.13;;;;;;;5.35;100.00;96407.69;4972334;28;20110;-69
2022/01/17 10:05:16;;;;;;;15.85;9.23;;;;;;;5.35;100.00;96404.22;4972980;28;20034;-68
2022/01/17 10:07:51;;;;;;;14.65;9.05;;;;;;;5.34;100.00;96373.34;4985771;28;20055;-68
2022/01/17 10:10:16;;;;;;;14.73;8.50;;;;;;;5.22;100.00;96367.81;4982816;28;20050;-68
2022/01/17 10:12:41;;;;;;;22.45;10.45;;;;;;;5.14;100.00;96357.34;4972419;28;20401;-68
2022/01/17 10:15:12;;;;;;;16.33;9.75;;;;;;;4.99;100.00;96362.78;4972558;28;20018;-69
2022/01/17 10:17:47;;;;;;;16.42;10.05;;;;;;;4.72;100.00;96359.22;4972610;28;20441;-68
2022/01/17 10:20:18;;;;;;;18.08;10.07;;;;;;;4.49;100.00;96359.50;4954844;28;20027;-68
2022/01/17 10:22:56;;;;;;;18.15;10.98;;;;;;;4.28;100.00;96357.75;4972252;28;20026;-69
2022/01/17 10:28:44;;;;;;;19.30;11.98;;;;;;;3.95;100.00;96338.94;4972370;28;20532;-69
2022/01/17 10:37:05;;;;;;;18.42;10.27;;;;;;;4.33;100.00;96338.59;4991363;28;20077;-68
2022/01/17 10:39:31;;;;;;;17.17;10.10;;;;;;;4.34;100.00;96340.22;4991276;28;20026;-69
2022/01/17 10:41:56;;;;;;;18.65;10.15;;;;;;;4.45;100.00;96334.41;4991176;28;20046;-69
2022/01/17 10:44:35;;;;;;;22.80;9.80;;;;;;;4.51;100.00;96333.59;4991238;28;20108;-68
2022/01/17 10:47:25;;;;;;;18.98;9.88;;;;;;;4.63;100.00;96339.97;4990017;28;20022;-69
2022/01/17 10:49:56;;;;;;;15.85;9.20;;;;;;;4.77;100.00;96359.44;4991193;28;20030;-69
2022/01/17 10:52:33;;;;;;;15.90;9.30;;;;;;;4.79;100.00;96354.78;4989694;28;20022;-69
2022/01/17 10:55:04;;;;;;;15.77;8.75;;;;;;;4.77;100.00;96353.31;4991124;28;20489;-69
2022/01/17 10:57:39;;;;;;;16.05;8.65;;;;;;;4.82;100.00;96350.91;4989728;28;20417;-68
2022/01/17 11:00:09;;;;;;;16.25;9.15;;;;;;;4.88;100.00;96361.56;4989843;28;20073;-69
2022/01/17 11:02:36;;;;;;;16.35;9.25;;;;;;;4.75;100.00;96369.44;4989512;28;20022;-69
2022/01/17 11:05:06;;;;;;;15.55;8.63;;;;;;;4.85;100.00;96375.19;4989571;28;20108;-69
2022/01/17 11:07:43;;;;;;;21.92;9.30;;;;;;;4.97;100.00;96383.41;4996189;28;20025;-68
2022/01/17 11:10:22;;;;;;;14.55;8.55;;;;;;;4.89;100.00;96402.19;4984282;28;20050;-66
2022/01/17 11:12:49;;;;;;;14.07;7.68;;;;;;;4.88;100.00;96398.72;4979598;28;20109;-68
2022/01/17 11:15:15;;;;;;;12.85;6.97;;;;;;;4.77;100.00;96417.81;4990852;28;20027;-67
2022/01/17 11:17:48;;;;;;;11.40;6.70;;;;;;;4.73;100.00;96419.25;4990830;28;20022;-68
2022/01/17 11:20:14;;;;;;;10.38;6.35;;;;;;;4.57;100.00;96431.00;4991225;28;20034;-69
2022/01/17 11:22:42;;;;;;;9.98;5.43;;;;;;;4.42;100.00;96426.78;4989469;28;20032;-70
2022/01/17 11:25:10;;;;;;;7.53;4.80;;;;;;;4.26;100.00;96434.03;4990573;28;20035;-67
2022/01/17 11:27:37;;;;;;;7.32;4.95;;;;;;;4.16;100.00;96438.84;4990748;28;20062;-68
2022/01/17 11:30:04;;;;;;;10.70;6.03;;;;;;;4.17;100.00;96427.22;4990755;28;20120;-68
2022/01/17 11:32:32;;;;;;;9.63;5.90;;;;;;;4.31;100.00;96426.31;4989365;28;20065;-67
2022/01/17 11:35:00;;;;;;;11.55;5.75;;;;;;;4.35;100.00;96435.53;4989490;28;20217;-68